Terminal Aerodrome Forecast
Issued by NWS Mt. Holly, NJ

Home | Current Version | Previous Version | Text Only | Print | Product List | Glossary On
Versions: 1 2 3 4 5 6 7 8 9 10 11 12 13 14 15 16 17 18 19 20
000
FTUS41 KPHI 281850 AAA
TAFTTN
TAF AMD
KTTN 281850Z 2819/2918 19007KT P6SM FEW030 FEW035
      TEMPO 2819/2820 28017KT 3SM TSRA BKN035CB
     FM282100 32007KT P6SM SCT250
     FM290600 03003KT 6SM BR SKC
     FM291500 11004KT P6SM SKC=

USA.gov is the U.S. government's official web portal to all federal, state and local government web resources and services.